createdAt,value
2019-04-06T00:02:02.571Z,71.09
2019-04-06T00:04:31.976Z,71.35
2019-04-06T00:07:01.298Z,71.65
2019-04-06T00:09:30.867Z,71.72
2019-04-06T00:12:00.301Z,71.69
2019-04-06T00:14:29.867Z,71.82
2019-04-06T00:16:59.199Z,72.24
2019-04-06T00:19:28.746Z,72.58
2019-04-06T00:21:58.037Z,72.72
2019-04-06T00:24:27.318Z,73.17
2019-04-06T00:26:56.954Z,73.18
2019-04-06T00:29:26.325Z,73.31
2019-04-06T00:32:12.292Z,73.77
2019-04-06T00:34:41.666Z,73.99
2019-04-06T00:37:10.952Z,73.92
2019-04-06T00:39:40.359Z,73.63
2019-04-06T00:42:09.799Z,73.42
2019-04-06T00:44:39.102Z,73.84
2019-04-06T00:47:08.476Z,74.09
2019-04-06T00:49:37.881Z,74.05
2019-04-06T00:52:07.221Z,74.03
2019-04-06T00:54:36.556Z,74.40
2019-04-06T00:57:05.956Z,74.34
2019-04-06T00:59:35.240Z,74.67
2019-04-06T01:02:05.919Z,74.71
2019-04-06T01:04:35.260Z,74.62
2019-04-06T01:07:04.753Z,74.42
2019-04-06T01:09:34.023Z,74.63
2019-04-06T01:12:03.336Z,74.77
2019-04-06T01:14:32.741Z,74.70
2019-04-06T01:17:02.011Z,74.84
2019-04-06T01:19:31.400Z,75.30
2019-04-06T01:22:00.899Z,75.67
2019-04-06T01:24:30.180Z,75.59
2019-04-06T01:26:59.665Z,75.71
2019-04-06T01:29:29.091Z,75.89
2019-04-06T01:31:58.596Z,76.03
2019-04-06T01:34:27.955Z,76.08
2019-04-06T01:36:57.307Z,76.54
2019-04-06T01:39:26.587Z,76.25
2019-04-06T01:41:56.102Z,76.46
2019-04-06T01:44:25.697Z,76.51
2019-04-06T01:46:55.032Z,76.46
2019-04-06T01:49:24.645Z,76.96
2019-04-06T01:51:54.170Z,76.82
2019-04-06T01:54:23.511Z,77.04
2019-04-06T01:56:53.005Z,76.93
2019-04-06T01:59:22.399Z,77.29
2019-04-06T02:01:56.081Z,77.03
2019-04-06T02:04:25.494Z,77.15
2019-04-06T02:06:54.989Z,77.54
2019-04-06T02:09:24.318Z,77.56
2019-04-06T02:11:53.831Z,77.64
2019-04-06T02:14:23.186Z,77.55
2019-04-06T02:16:52.673Z,77.41
2019-04-06T02:19:22.144Z,76.86
2019-04-06T02:21:51.437Z,76.88
2019-04-06T02:24:20.756Z,76.53
2019-04-06T02:26:50.301Z,76.13
2019-04-06T02:29:19.641Z,76.76
2019-04-06T02:31:59.354Z,76.68
2019-04-06T02:34:50.650Z,76.34
2019-04-06T02:37:45.706Z,76.34
2019-04-06T02:40:36.987Z,76.62
2019-04-06T02:43:10.252Z,76.07
2019-04-06T02:45:39.533Z,76.33
2019-04-06T02:48:08.881Z,76.77
2019-04-06T02:50:38.437Z,77.05
2019-04-06T02:53:07.684Z,76.91
2019-04-06T02:55:36.997Z,76.77
2019-04-06T02:58:06.643Z,77.25
2019-04-06T03:00:36.339Z,77.18
2019-04-06T03:03:05.640Z,76.74
2019-04-06T03:05:35.450Z,76.86
2019-04-06T03:08:04.824Z,76.42
2019-04-06T03:10:34.451Z,76.51
2019-04-06T03:13:03.816Z,76.06
2019-04-06T03:15:33.221Z,76.30
2019-04-06T03:18:02.505Z,75.93
2019-04-06T03:20:31.880Z,76.34
2019-04-06T03:23:01.290Z,76.20
2019-04-06T03:25:30.625Z,76.40
2019-04-06T03:28:00.109Z,76.50
2019-04-06T03:30:29.435Z,76.70
2019-04-06T03:32:59.079Z,76.72
2019-04-06T03:35:28.713Z,76.87
2019-04-06T03:37:57.960Z,76.89
2019-04-06T03:40:27.330Z,76.75
2019-04-06T03:42:56.834Z,76.43
2019-04-06T03:45:26.113Z,76.49
2019-04-06T03:47:55.417Z,75.92
2019-04-06T03:50:25.022Z,75.43
2019-04-06T03:52:54.384Z,75.23
2019-04-06T03:55:23.756Z,75.59
2019-04-06T03:57:53.561Z,75.54
2019-04-06T04:00:22.884Z,75.54
2019-04-06T04:02:52.709Z,75.99
2019-04-06T04:05:22.940Z,75.87
2019-04-06T04:07:52.638Z,75.77
2019-04-06T04:10:36.377Z,75.65
2019-04-06T04:13:06.043Z,75.67
2019-04-06T04:15:35.353Z,75.85
2019-04-06T04:18:04.808Z,75.91
2019-04-06T04:20:34.095Z,76.33
2019-04-06T04:23:03.335Z,76.46
2019-04-06T04:25:32.838Z,76.53
2019-04-06T04:28:02.157Z,76.42
2019-04-06T04:30:34.052Z,76.42
2019-04-06T04:33:02.845Z,76.48
2019-04-06T04:35:32.437Z,76.44
2019-04-06T04:38:01.800Z,76.48
2019-04-06T04:40:31.333Z,76.00
2019-04-06T04:43:00.645Z,76.32
2019-04-06T04:45:29.924Z,76.38
2019-04-06T04:47:59.416Z,76.26
2019-04-06T04:50:28.716Z,76.23
2019-04-06T04:52:58.056Z,75.85
2019-04-06T04:55:27.573Z,75.90
2019-04-06T04:57:56.862Z,75.73
2019-04-06T05:00:26.155Z,75.66
2019-04-06T05:02:55.797Z,75.72
2019-04-06T05:05:25.203Z,75.62
2019-04-06T05:07:54.487Z,75.44
2019-04-06T05:10:23.950Z,74.71
2019-04-06T05:12:53.566Z,73.66
2019-04-06T05:15:47.966Z,72.65
2019-04-06T05:18:17.222Z,72.60
2019-04-06T05:20:46.515Z,70.90
2019-04-06T05:23:16.099Z,70.87
2019-04-06T05:25:45.399Z,70.26
2019-04-06T05:28:14.684Z,70.26
2019-04-06T05:30:44.339Z,69.64
2019-04-06T05:33:13.803Z,69.18
2019-04-06T05:35:43.242Z,69.46
2019-04-06T05:38:12.913Z,68.94
2019-04-06T05:40:42.218Z,68.75
2019-04-06T05:43:11.543Z,68.25
2019-04-06T05:45:41.180Z,67.65
2019-04-06T05:48:10.495Z,67.28
2019-04-06T05:50:39.803Z,66.87
2019-04-06T05:53:09.352Z,66.81
2019-04-06T05:55:38.706Z,67.09
2019-04-06T05:58:10.647Z,67.10
2019-04-06T06:00:40.530Z,66.42
2019-04-06T06:03:11.360Z,65.50
2019-04-06T06:05:41.257Z,65.21
2019-04-06T06:08:10.582Z,64.24
2019-04-06T06:10:39.864Z,63.68
2019-04-06T06:13:09.311Z,62.98
2019-04-06T06:15:38.705Z,63.16
2019-04-06T06:18:07.989Z,62.58
2019-04-06T06:20:37.391Z,62.55
2019-04-06T06:23:06.728Z,62.78
2019-04-06T06:25:36.283Z,62.17
2019-04-06T06:28:14.656Z,61.52
2019-04-06T06:30:36.812Z,61.82
2019-04-06T06:33:06.400Z,59.98
2019-04-06T06:35:35.701Z,59.96
2019-04-06T06:38:05.039Z,58.94
2019-04-06T06:40:34.449Z,59.11
2019-04-06T06:43:03.713Z,59.97
2019-04-06T06:45:33.154Z,59.80
2019-04-06T06:48:02.660Z,58.85
2019-04-06T06:50:34.463Z,58.14
2019-04-06T06:53:03.086Z,58.11
2019-04-06T06:55:32.567Z,58.03
2019-04-06T06:58:01.856Z,57.82
2019-04-06T07:00:31.368Z,56.20
2019-04-06T07:03:00.686Z,55.82
2019-04-06T07:05:30.006Z,57.33
2019-04-06T07:07:59.705Z,56.44
2019-04-06T07:10:29.009Z,56.48
2019-04-06T07:12:58.335Z,57.47
2019-04-06T07:15:27.938Z,55.70
2019-04-06T07:17:57.254Z,54.83
2019-04-06T07:20:26.560Z,53.91
2019-04-06T07:22:56.169Z,56.65
2019-04-06T07:25:25.498Z,54.48
2019-04-06T07:27:54.769Z,55.27
2019-04-06T07:30:24.124Z,53.64
2019-04-06T07:32:55.412Z,53.85
2019-04-06T07:35:24.477Z,53.79
2019-04-06T07:37:53.813Z,53.36
2019-04-06T07:40:23.099Z,52.68
2019-04-06T07:42:52.356Z,52.89
2019-04-06T07:45:21.676Z,53.16
2019-04-06T07:47:50.990Z,53.63
2019-04-06T07:50:20.588Z,54.57
2019-04-06T07:52:50.019Z,54.55
2019-04-06T07:55:19.320Z,51.00
2019-04-06T07:57:48.625Z,51.62
2019-04-06T08:00:18.278Z,53.06
2019-04-06T08:02:47.796Z,51.67
2019-04-06T08:05:17.179Z,52.59
2019-04-06T08:07:46.866Z,52.48
2019-04-06T08:10:16.470Z,53.26
2019-04-06T08:12:46.111Z,52.95
2019-04-06T08:15:15.652Z,54.65
2019-04-06T08:17:44.902Z,52.23
2019-04-06T08:20:14.318Z,52.77
2019-04-06T08:22:44.012Z,52.82
2019-04-06T08:25:13.622Z,52.94
2019-04-06T08:27:42.902Z,51.39
2019-04-06T08:30:12.595Z,51.89
2019-04-06T08:32:41.953Z,52.27
2019-04-06T08:35:11.847Z,53.73
2019-04-06T08:37:41.373Z,54.57
2019-04-06T08:40:11.105Z,51.84
2019-04-06T08:42:40.397Z,52.48
2019-04-06T08:45:10.796Z,51.41
2019-04-06T08:47:40.203Z,50.94
2019-04-06T08:50:10.136Z,50.30
2019-04-06T08:52:39.580Z,53.31
2019-04-06T08:55:09.209Z,53.09
2019-04-06T08:57:38.459Z,51.78
2019-04-06T09:00:08.187Z,51.20
2019-04-06T09:02:37.568Z,49.97
2019-04-06T09:05:07.007Z,48.89
2019-04-06T09:07:36.511Z,51.55
2019-04-06T09:10:06.415Z,52.08
2019-04-06T09:12:35.755Z,51.23
2019-04-06T09:15:05.352Z,52.10
2019-04-06T09:17:34.716Z,49.07
2019-04-06T09:20:04.603Z,49.99
2019-04-06T09:22:34.049Z,51.37
2019-04-06T09:25:03.358Z,50.52
2019-04-06T09:27:33.120Z,50.70
2019-04-06T09:30:02.780Z,48.05
2019-04-06T09:32:32.304Z,49.16
2019-04-06T09:35:01.571Z,51.02
2019-04-06T09:37:31.239Z,50.29
2019-04-06T09:40:00.532Z,47.88
2019-04-06T09:42:30.004Z,47.65
2019-04-06T09:45:21.366Z,47.22
2019-04-06T09:47:55.971Z,48.22
2019-04-06T09:50:38.927Z,49.18
2019-04-06T09:53:40.110Z,49.00
2019-04-06T09:56:17.181Z,45.87
2019-04-06T09:59:11.992Z,47.35
2019-04-06T10:02:00.909Z,48.69
2019-04-06T10:04:58.394Z,48.90
2019-04-06T10:07:45.429Z,48.68
2019-04-06T10:10:43.029Z,50.06
2019-04-06T10:13:29.871Z,48.34
2019-04-06T10:16:20.603Z,48.97
2019-04-06T10:19:04.493Z,46.11
2019-04-06T10:22:01.920Z,47.25
2019-04-06T10:24:56.270Z,48.04
2019-04-06T10:27:45.722Z,48.14
2019-04-06T10:30:38.818Z,47.32
2019-04-06T10:33:26.156Z,48.74
2019-04-06T10:36:05.981Z,47.28
2019-04-06T10:38:57.261Z,47.56
2019-04-06T10:41:36.712Z,47.78
2019-04-06T10:44:28.397Z,47.31
2019-04-06T10:47:03.673Z,44.90
2019-04-06T10:49:51.908Z,46.59
2019-04-06T10:52:31.393Z,45.74
2019-04-06T10:55:18.384Z,48.61
2019-04-06T10:58:02.615Z,47.78
2019-04-06T11:01:02.756Z,51.02
2019-04-06T11:04:03.378Z,47.34
2019-04-06T11:06:42.582Z,48.74
2019-04-06T11:09:29.945Z,47.00
2019-04-06T11:12:10.792Z,48.99
2019-04-06T11:14:54.226Z,50.03
2019-04-06T11:17:51.684Z,50.97
2019-04-06T11:20:38.891Z,51.13
2019-04-06T11:23:29.871Z,51.54
2019-04-06T11:26:21.395Z,51.76
2019-04-06T11:29:25.070Z,53.75
2019-04-06T11:32:12.460Z,54.66
2019-04-06T11:35:06.975Z,57.11
2019-04-06T11:37:54.361Z,58.54
2019-04-06T11:40:41.580Z,60.36
2019-04-06T11:43:20.953Z,60.70
2019-04-06T11:46:24.675Z,60.71
2019-04-06T11:49:11.502Z,60.45
2019-04-06T11:51:51.067Z,61.88
2019-04-06T11:54:29.834Z,60.51
2019-04-06T11:57:07.261Z,61.56
2019-04-06T12:00:23.598Z,62.30
2019-04-06T12:02:54.069Z,61.74
2019-04-06T12:05:31.522Z,61.50
2019-04-06T12:08:12.660Z,62.12
2019-04-06T12:10:50.006Z,62.82
2019-04-06T12:13:41.100Z,63.14
2019-04-06T12:16:35.120Z,63.46
2019-04-06T12:19:21.968Z,63.88
2019-04-06T12:22:07.377Z,63.45
2019-04-06T12:24:54.009Z,64.40
2019-04-06T12:27:45.271Z,63.94
2019-04-06T12:30:36.681Z,64.26
2019-04-06T12:33:14.333Z,64.42
2019-04-06T12:35:56.057Z,64.34
2019-04-06T12:38:44.509Z,64.04
2019-04-06T12:41:48.069Z,64.79
2019-04-06T12:44:42.245Z,65.46
2019-04-06T12:47:19.549Z,65.17
2019-04-06T12:50:07.079Z,64.70
2019-04-06T12:52:58.075Z,64.75
2019-04-06T12:55:49.674Z,64.96
2019-04-06T12:58:44.091Z,65.08
2019-04-06T13:01:32.679Z,64.47
2019-04-06T13:04:39.325Z,65.28
2019-04-06T13:07:34.018Z,65.12
2019-04-06T13:10:14.807Z,65.82
2019-04-06T13:13:03.308Z,65.42
2019-04-06T13:15:50.179Z,66.10
2019-04-06T13:18:41.210Z,66.33
2019-04-06T13:21:29.775Z,66.35
2019-04-06T13:24:13.788Z,65.69
2019-04-06T13:27:02.068Z,67.23
2019-04-06T13:29:55.142Z,66.44
2019-04-06T13:32:43.405Z,65.58
2019-04-06T13:35:17.763Z,65.38
2019-04-06T13:38:24.109Z,65.78
2019-04-06T13:41:11.297Z,65.73
2019-04-06T13:43:46.614Z,65.81
2019-04-06T13:46:35.322Z,65.10
2019-04-06T13:49:21.354Z,65.61
2019-04-06T13:51:57.417Z,65.10
2019-04-06T13:54:54.883Z,65.84
2019-04-06T13:57:31.306Z,65.38
2019-04-06T14:00:19.509Z,65.91
2019-04-06T14:02:55.985Z,66.42
2019-04-06T14:05:43.194Z,67.33
2019-04-06T14:08:40.700Z,65.75
2019-04-06T14:11:32.019Z,66.19
2019-04-06T14:14:20.682Z,65.69
2019-04-06T14:17:07.559Z,65.61
2019-04-06T14:19:54.784Z,66.43
2019-04-06T14:22:48.320Z,66.54
2019-04-06T14:25:40.231Z,66.65
2019-04-06T14:28:25.926Z,67.11
2019-04-06T14:31:27.370Z,67.48
2019-04-06T14:34:07.320Z,66.84
2019-04-06T14:36:49.588Z,66.40
2019-04-06T14:39:36.249Z,66.53
2019-04-06T14:42:27.600Z,67.74
2019-04-06T14:45:14.660Z,67.58
2019-04-06T14:48:15.418Z,67.35
2019-04-06T14:51:12.923Z,67.88
2019-04-06T14:54:16.530Z,67.39
2019-04-06T14:57:17.041Z,67.89
2019-04-06T14:59:59.111Z,67.55
2019-04-06T15:02:35.267Z,67.48
2019-04-06T15:05:22.579Z,65.28
2019-04-06T15:08:20.174Z,64.56
2019-04-06T15:11:14.845Z,64.92
2019-04-06T15:14:05.909Z,65.01
2019-04-06T15:16:47.008Z,66.31
2019-04-06T15:19:23.541Z,67.50
2019-04-06T15:22:04.429Z,68.01
2019-04-06T15:24:56.742Z,69.22
2019-04-06T15:27:44.464Z,69.10
2019-04-06T15:30:31.479Z,69.87
2019-04-06T15:33:18.729Z,70.74
2019-04-06T15:36:13.080Z,71.12
2019-04-06T15:39:04.666Z,71.10
2019-04-06T15:41:55.755Z,71.22
2019-04-06T15:44:34.781Z,71.81
2019-04-06T15:47:21.810Z,72.19
2019-04-06T15:50:16.449Z,72.39
2019-04-06T15:53:13.679Z,72.55
2019-04-06T15:55:53.403Z,72.60
2019-04-06T15:58:28.157Z,72.32
2019-04-06T16:01:14.322Z,72.49
2019-04-06T16:03:59.982Z,72.39
2019-04-06T16:06:57.375Z,72.20
2019-04-06T16:09:54.686Z,73.06
2019-04-06T16:12:38.820Z,73.31
2019-04-06T16:15:29.899Z,72.53
2019-04-06T16:18:18.706Z,72.96
2019-04-06T16:21:06.424Z,73.30
2019-04-06T16:24:02.300Z,73.61
2019-04-06T16:26:29.675Z,73.43
2019-04-06T16:29:11.007Z,73.79
2019-04-06T16:31:54.178Z,73.66
2019-04-06T16:34:35.559Z,73.71
2019-04-06T16:37:30.179Z,74.02
2019-04-06T16:40:30.945Z,73.71
2019-04-06T16:43:11.903Z,73.80
2019-04-06T16:45:51.186Z,73.72
2019-04-06T16:48:52.406Z,74.04
2019-04-06T16:51:47.096Z,74.35
2019-04-06T16:54:47.407Z,74.00
2019-04-06T16:57:39.848Z,73.73
2019-04-06T17:00:37.779Z,74.04
2019-04-06T17:03:28.909Z,74.07
2019-04-06T17:06:14.591Z,74.11
2019-04-06T17:09:01.190Z,74.39
2019-04-06T17:11:52.443Z,74.38
2019-04-06T17:14:52.968Z,74.67
2019-04-06T17:17:44.121Z,74.20
2019-04-06T17:20:38.995Z,74.31
2019-04-06T17:23:25.928Z,74.59
2019-04-06T17:26:15.667Z,74.41
2019-04-06T17:28:57.709Z,74.27
2019-04-06T17:31:44.430Z,74.61
2019-04-06T17:34:35.433Z,75.04
2019-04-06T17:37:24.536Z,75.24
2019-04-06T17:40:11.192Z,75.36
2019-04-06T17:42:47.133Z,75.69
2019-04-06T17:45:35.784Z,75.99
2019-04-06T17:48:24.109Z,76.09
2019-04-06T17:51:18.241Z,76.30
2019-04-06T17:54:05.268Z,76.94
2019-04-06T17:56:44.492Z,76.96
2019-04-06T17:59:35.941Z,77.84
2019-04-06T18:02:33.514Z,78.37
2019-04-06T18:05:22.098Z,78.85
2019-04-06T18:07:58.438Z,79.60
2019-04-06T18:10:50.299Z,80.06
2019-04-06T18:13:40.219Z,80.67
2019-04-06T18:16:10.208Z,80.96
2019-04-06T18:18:39.862Z,80.90
2019-04-06T18:21:09.834Z,81.51
2019-04-06T18:23:39.764Z,81.38
2019-04-06T18:26:09.109Z,82.14
2019-04-06T18:28:38.442Z,82.13
2019-04-06T18:31:30.494Z,83.19
2019-04-06T18:34:00.677Z,83.58
2019-04-06T18:36:48.165Z,83.50
2019-04-06T18:39:17.604Z,83.97
2019-04-06T18:41:55.564Z,84.92
2019-04-06T18:44:25.640Z,84.51
2019-04-06T18:46:56.621Z,84.42
2019-04-06T18:49:27.537Z,85.08
2019-04-06T18:51:57.752Z,85.51
2019-04-06T18:54:27.789Z,85.72
2019-04-06T18:56:58.107Z,85.31
2019-04-06T18:59:27.967Z,85.39
2019-04-06T19:01:57.359Z,85.90
2019-04-06T19:04:27.468Z,85.70
2019-04-06T19:06:58.109Z,85.85
2019-04-06T19:09:28.652Z,86.04
2019-04-06T19:11:59.718Z,86.29
2019-04-06T19:14:29.804Z,86.66
2019-04-06T19:17:00.842Z,86.46
2019-04-06T19:19:30.939Z,86.46
2019-04-06T19:22:01.431Z,86.23
2019-04-06T19:24:31.451Z,85.88
2019-04-06T19:27:01.838Z,85.82
2019-04-06T19:29:31.893Z,85.33
2019-04-06T19:32:01.683Z,84.90
2019-04-06T19:34:31.466Z,84.88
2019-04-06T19:37:01.618Z,85.26
2019-04-06T19:39:31.856Z,85.85
2019-04-06T19:42:02.747Z,86.41
2019-04-06T19:44:32.704Z,86.67
2019-04-06T19:47:03.000Z,87.12
2019-04-06T19:49:32.761Z,87.58
2019-04-06T19:52:02.797Z,87.60
2019-04-06T19:54:33.334Z,87.93
2019-04-06T19:57:03.610Z,88.10
2019-04-06T19:59:33.791Z,88.60
2019-04-06T20:02:03.055Z,88.65
2019-04-06T20:04:32.378Z,88.66
2019-04-06T20:07:01.856Z,88.69
2019-04-06T20:09:31.188Z,88.93
2019-04-06T20:12:06.096Z,89.20
2019-04-06T20:14:31.769Z,89.13
2019-04-06T20:17:01.020Z,89.54
2019-04-06T20:19:30.341Z,89.19
2019-04-06T20:21:59.816Z,89.86
2019-04-06T20:24:29.939Z,89.59
2019-04-06T20:26:59.877Z,89.86
2019-04-06T20:29:29.545Z,89.73
2019-04-06T20:31:58.780Z,89.47
2019-04-06T20:34:28.468Z,89.60
2019-04-06T20:36:58.034Z,89.66
2019-04-06T20:39:27.285Z,89.94
2019-04-06T20:41:56.629Z,89.97
2019-04-06T20:44:26.516Z,90.35
2019-04-06T20:46:55.920Z,90.54
2019-04-06T20:49:25.329Z,90.41
2019-04-06T20:51:55.006Z,89.19
2019-04-06T20:54:24.615Z,88.16
2019-04-06T20:56:58.163Z,88.31
2019-04-06T20:59:25.468Z,88.80
2019-04-06T21:01:54.749Z,89.51
2019-04-06T21:04:24.721Z,90.36
2019-04-06T21:06:54.967Z,90.19
2019-04-06T21:09:24.350Z,90.11
2019-04-06T21:11:53.654Z,90.01
2019-04-06T21:14:23.324Z,90.02
2019-04-06T21:16:53.362Z,90.00
2019-04-06T21:19:22.847Z,89.99
2019-04-06T21:21:52.152Z,90.04
2019-04-06T21:24:21.474Z,90.16
2019-04-06T21:26:50.798Z,90.06
2019-04-06T21:29:20.361Z,90.02
2019-04-06T21:31:49.890Z,89.99
2019-04-06T21:34:19.374Z,90.33
2019-04-06T21:36:49.530Z,90.62
2019-04-06T21:39:19.054Z,90.54
2019-04-06T21:41:48.692Z,90.51
2019-04-06T21:44:18.014Z,90.54
2019-04-06T21:46:47.303Z,90.39
2019-04-06T21:49:16.701Z,90.60
2019-04-06T21:51:46.072Z,90.82
2019-04-06T21:54:15.978Z,90.68
2019-04-06T21:56:45.367Z,90.84
2019-04-06T21:59:16.089Z,91.20
2019-04-06T22:01:46.532Z,91.28
2019-04-06T22:04:24.933Z,91.28
2019-04-06T22:06:47.339Z,91.45
2019-04-06T22:09:16.545Z,91.51
2019-04-06T22:11:46.057Z,91.67
2019-04-06T22:14:15.850Z,91.71
2019-04-06T22:16:45.808Z,91.48
2019-04-06T22:19:15.715Z,91.34
2019-04-06T22:21:45.266Z,91.33
2019-04-06T22:24:14.930Z,91.61
2019-04-06T22:26:44.411Z,91.68
2019-04-06T22:29:14.020Z,91.65
2019-04-06T22:31:43.743Z,91.72
2019-04-06T22:34:13.549Z,91.90
2019-04-06T22:36:42.837Z,91.86
2019-04-06T22:39:12.298Z,92.34
2019-04-06T22:41:42.059Z,92.14
2019-04-06T22:44:11.367Z,92.06
2019-04-06T22:46:40.805Z,92.27
2019-04-06T22:49:10.288Z,91.72
2019-04-06T22:51:40.053Z,91.79
2019-04-06T22:54:10.602Z,91.46
2019-04-06T22:56:40.138Z,91.46
2019-04-06T22:59:09.676Z,91.63
2019-04-06T23:01:40.545Z,91.79
2019-04-06T23:04:31.077Z,91.62
2019-04-06T23:07:03.194Z,91.69
2019-04-06T23:09:41.712Z,91.85
2019-04-06T23:12:10.993Z,91.93
2019-04-06T23:14:40.333Z,91.66
2019-04-06T23:17:10.244Z,91.73
2019-04-06T23:19:39.600Z,91.70
2019-04-06T23:22:09.074Z,91.49
2019-04-06T23:24:38.711Z,91.49
2019-04-06T23:27:08.544Z,91.87
2019-04-06T23:29:38.061Z,92.18
2019-04-06T23:32:08.009Z,92.50
2019-04-06T23:34:37.294Z,92.87
2019-04-06T23:37:07.224Z,93.16
2019-04-06T23:39:37.065Z,93.29
2019-04-06T23:42:06.902Z,93.36
2019-04-06T23:44:36.424Z,93.38
2019-04-06T23:47:06.008Z,93.42
2019-04-06T23:49:35.244Z,93.44
2019-04-06T23:52:04.515Z,93.25
2019-04-06T23:54:34.621Z,92.91
2019-04-06T23:57:04.682Z,92.72
2019-04-06T23:59:33.990Z,92.44
